sensor_id;sensor_type;location;lat;lon;timestamp;pressure;altitude;pressure_sealevel;temperature;humidity
19797;BME280;10058;57.654;12.044;2023-08-24T00:00:14;100884.03;;;18.29;100.00
19797;BME280;10058;57.654;12.044;2023-08-24T00:02:39;100891.19;;;18.18;100.00
19797;BME280;10058;57.654;12.044;2023-08-24T00:05:05;100871.53;;;18.19;100.00
19797;BME280;10058;57.654;12.044;2023-08-24T00:07:30;100876.88;;;18.28;100.00
19797;BME280;10058;57.654;12.044;2023-08-24T00:09:57;100882.25;;;18.19;100.00
19797;BME280;10058;57.654;12.044;2023-08-24T00:12:22;100873.34;;;18.11;100.00
19797;BME280;10058;57.654;12.044;2023-08-24T00:14:47;100866.22;;;18.03;100.00
19797;BME280;10058;57.654;12.044;2023-08-24T00:17:13;100865.34;;;17.95;100.00
19797;BME280;10058;57.654;12.044;2023-08-24T00:19:38;100868.91;;;17.73;100.00
19797;BME280;10058;57.654;12.044;2023-08-24T00:22:03;100864.47;;;17.81;100.00
19797;BME280;10058;57.654;12.044;2023-08-24T00:24:29;100870.72;;;17.74;100.00
19797;BME280;10058;57.654;12.044;2023-08-24T00:26:54;100863.56;;;17.90;100.00
19797;BME280;10058;57.654;12.044;2023-08-24T00:29:20;100860.88;;;18.03;100.00
19797;BME280;10058;57.654;12.044;2023-08-24T00:31:47;100861.75;;;18.08;100.00
19797;BME280;10058;57.654;12.044;2023-08-24T00:34:12;100843.00;;;18.27;100.00
19797;BME280;10058;57.654;12.044;2023-08-24T00:36:38;100849.22;;;18.33;100.00
19797;BME280;10058;57.654;12.044;2023-08-24T00:39:03;100843.03;;;18.05;100.00
19797;BME280;10058;57.654;12.044;2023-08-24T00:41:28;100847.50;;;18.11;100.00
19797;BME280;10058;57.654;12.044;2023-08-24T00:43:54;100846.59;;;18.07;100.00
19797;BME280;10058;57.654;12.044;2023-08-24T00:46:19;100848.38;;;18.02;100.00
19797;BME280;10058;57.654;12.044;2023-08-24T00:48:46;100846.63;;;17.92;100.00
19797;BME280;10058;57.654;12.044;2023-08-24T00:51:12;100797.63;;;17.70;100.00
19797;BME280;10058;57.654;12.044;2023-08-24T00:53:37;100849.28;;;18.07;100.00
19797;BME280;10058;57.654;12.044;2023-08-24T00:56:03;100843.94;;;18.09;100.00
19797;BME280;10058;57.654;12.044;2023-08-24T00:58:29;100845.75;;;17.90;100.00
19797;BME280;10058;57.654;12.044;2023-08-24T01:00:57;100841.31;;;17.80;100.00
19797;BME280;10058;57.654;12.044;2023-08-24T01:03:23;100850.22;;;17.78;100.00
19797;BME280;10058;57.654;12.044;2023-08-24T01:05:49;100845.75;;;17.70;100.00
19797;BME280;10058;57.654;12.044;2023-08-24T01:08:15;100843.06;;;17.60;100.00
19797;BME280;10058;57.654;12.044;2023-08-24T01:10:48;100842.19;;;17.70;100.00
19797;BME280;10058;57.654;12.044;2023-08-24T01:13:18;100791.41;;;17.30;100.00
19797;BME280;10058;57.654;12.044;2023-08-24T01:15:48;100851.97;;;17.62;100.00
19797;BME280;10058;57.654;12.044;2023-08-24T01:18:17;100843.03;;;17.54;100.00
19797;BME280;10058;57.654;12.044;2023-08-24T01:20:47;100848.41;;;17.57;100.00
19797;BME280;10058;57.654;12.044;2023-08-24T01:23:41;100851.06;;;17.57;100.00
19797;BME280;10058;57.654;12.044;2023-08-24T01:26:18;100835.91;;;17.56;100.00
19797;BME280;10058;57.654;12.044;2023-08-24T01:28:45;100844.81;;;17.39;100.00
19797;BME280;10058;57.654;12.044;2023-08-24T01:31:13;100845.69;;;17.20;100.00
19797;BME280;10058;57.654;12.044;2023-08-24T01:33:39;100839.44;;;17.15;100.00
19797;BME280;10058;57.654;12.044;2023-08-24T01:36:06;100837.66;;;17.17;100.00
19797;BME280;10058;57.654;12.044;2023-08-24T01:38:31;100834.13;;;17.24;100.00
19797;BME280;10058;57.654;12.044;2023-08-24T01:43:30;100836.72;;;16.91;100.00
19797;BME280;10058;57.654;12.044;2023-08-24T01:45:59;100806.47;;;16.93;100.00
19797;BME280;10058;57.654;12.044;2023-08-24T01:48:25;100821.66;;;17.14;100.00
19797;BME280;10058;57.654;12.044;2023-08-24T01:50:51;100816.28;;;17.17;100.00
19797;BME280;10058;57.654;12.044;2023-08-24T01:53:17;100824.28;;;16.94;100.00
19797;BME280;10058;57.654;12.044;2023-08-24T01:55:45;100777.06;;;16.77;100.00
19797;BME280;10058;57.654;12.044;2023-08-24T01:58:10;100807.38;;;16.97;100.00
19797;BME280;10058;57.654;12.044;2023-08-24T02:00:36;100819.84;;;17.04;100.00
19797;BME280;10058;57.654;12.044;2023-08-24T02:03:01;100826.06;;;17.06;100.00
19797;BME280;10058;57.654;12.044;2023-08-24T02:05:27;100817.16;;;17.05;100.00
19797;BME280;10058;57.654;12.044;2023-08-24T02:07:54;100825.16;;;16.89;100.00
19797;BME280;10058;57.654;12.044;2023-08-24T02:10:19;100818.09;;;17.21;100.00
19797;BME280;10058;57.654;12.044;2023-08-24T02:12:45;100814.50;;;17.19;100.00
19797;BME280;10058;57.654;12.044;2023-08-24T02:15:10;100817.19;;;17.19;100.00
19797;BME280;10058;57.654;12.044;2023-08-24T02:17:36;100807.38;;;17.18;100.00
19797;BME280;10058;57.654;12.044;2023-08-24T02:20:01;100818.06;;;17.06;100.00
19797;BME280;10058;57.654;12.044;2023-08-24T02:22:29;100819.84;;;17.07;100.00
19797;BME280;10058;57.654;12.044;2023-08-24T02:24:54;100814.53;;;17.28;100.00
19797;BME280;10058;57.654;12.044;2023-08-24T02:27:19;100816.31;;;17.34;100.00
19797;BME280;10058;57.654;12.044;2023-08-24T02:29:45;100828.78;;;17.21;100.00
19797;BME280;10058;57.654;12.044;2023-08-24T02:32:10;100823.44;;;17.33;100.00
19797;BME280;10058;57.654;12.044;2023-08-24T02:34:36;100818.97;;;17.35;100.00
19797;BME280;10058;57.654;12.044;2023-08-24T02:37:01;100819.91;;;17.31;100.00
19797;BME280;10058;57.654;12.044;2023-08-24T02:39:27;100819.00;;;17.28;100.00
19797;BME280;10058;57.654;12.044;2023-08-24T02:41:52;100823.44;;;17.30;100.00
19797;BME280;10058;57.654;12.044;2023-08-24T02:44:17;100824.31;;;17.35;100.00
19797;BME280;10058;57.654;12.044;2023-08-24T02:46:48;100778.91;;;17.11;100.00
19797;BME280;10058;57.654;12.044;2023-08-24T02:49:13;100825.22;;;17.53;100.00
19797;BME280;10058;57.654;12.044;2023-08-24T02:51:39;100822.56;;;17.57;100.00
19797;BME280;10058;57.654;12.044;2023-08-24T02:54:04;100819.88;;;17.54;100.00
19797;BME280;10058;57.654;12.044;2023-08-24T02:56:30;100828.81;;;17.46;100.00
19797;BME280;10058;57.654;12.044;2023-08-24T02:58:55;100811.88;;;17.48;100.00
19797;BME280;10058;57.654;12.044;2023-08-24T03:01:21;100819.00;;;17.46;100.00
19797;BME280;10058;57.654;12.044;2023-08-24T03:03:46;100809.19;;;17.62;100.00
19797;BME280;10058;57.654;12.044;2023-08-24T03:06:12;100810.06;;;17.53;100.00
19797;BME280;10058;57.654;12.044;2023-08-24T03:08:37;100811.88;;;17.42;100.00
19797;BME280;10058;57.654;12.044;2023-08-24T03:11:03;100806.53;;;17.45;100.00
19797;BME280;10058;57.654;12.044;2023-08-24T03:13:29;100798.50;;;17.36;100.00
19797;BME280;10058;57.654;12.044;2023-08-24T03:15:55;100793.16;;;17.50;100.00
19797;BME280;10058;57.654;12.044;2023-08-24T03:18:21;100810.97;;;17.63;100.00
19797;BME280;10058;57.654;12.044;2023-08-24T03:20:48;100816.34;;;17.45;100.00
19797;BME280;10058;57.654;12.044;2023-08-24T03:23:14;100819.91;;;17.47;100.00
19797;BME280;10058;57.654;12.044;2023-08-24T03:25:41;100808.31;;;17.58;100.00
19797;BME280;10058;57.654;12.044;2023-08-24T03:28:08;100772.69;;;17.27;100.00
19797;BME280;10058;57.654;12.044;2023-08-24T03:30:35;100808.31;;;17.58;100.00
19797;BME280;10058;57.654;12.044;2023-08-24T03:33:01;100805.66;;;17.72;100.00
19797;BME280;10058;57.654;12.044;2023-08-24T03:35:31;100808.28;;;17.51;100.00
19797;BME280;10058;57.654;12.044;2023-08-24T03:37:57;100808.31;;;17.60;100.00
19797;BME280;10058;57.654;12.044;2023-08-24T03:40:22;100813.66;;;17.54;100.00
19797;BME280;10058;57.654;12.044;2023-08-24T03:42:48;100817.22;;;17.59;100.00
19797;BME280;10058;57.654;12.044;2023-08-24T03:45:13;100813.66;;;17.40;100.00
19797;BME280;10058;57.654;12.044;2023-08-24T03:47:39;100818.13;;;17.47;100.00
19797;BME280;10058;57.654;12.044;2023-08-24T03:50:04;100818.97;;;17.32;100.00
19797;BME280;10058;57.654;12.044;2023-08-24T03:52:30;100815.44;;;17.30;100.00
19797;BME280;10058;57.654;12.044;2023-08-24T03:54:56;100823.47;;;17.47;100.00
19797;BME280;10058;57.654;12.044;2023-08-24T03:57:22;100810.97;;;17.32;100.00
19797;BME280;10058;57.654;12.044;2023-08-24T03:59:47;100815.41;;;17.50;100.00
19797;BME280;10058;57.654;12.044;2023-08-24T04:02:12;100822.56;;;17.59;100.00
19797;BME280;10058;57.654;12.044;2023-08-24T04:04:38;100823.44;;;17.61;100.00
19797;BME280;10058;57.654;12.044;2023-08-24T04:07:03;100819.03;;;17.64;100.00
19797;BME280;10058;57.654;12.044;2023-08-24T04:09:29;100819.91;;;17.71;100.00
19797;BME280;10058;57.654;12.044;2023-08-24T04:11:54;100815.47;;;17.64;100.00
19797;BME280;10058;57.654;12.044;2023-08-24T04:14:19;100816.34;;;17.69;100.00
19797;BME280;10058;57.654;12.044;2023-08-24T04:16:45;100807.41;;;17.55;100.00
19797;BME280;10058;57.654;12.044;2023-08-24T04:19:10;100819.03;;;17.66;100.00
19797;BME280;10058;57.654;12.044;2023-08-24T04:21:35;100818.13;;;17.76;100.00
19797;BME280;10058;57.654;12.044;2023-08-24T04:24:01;100811.91;;;17.65;100.00
19797;BME280;10058;57.654;12.044;2023-08-24T04:26:26;100816.34;;;17.63;100.00
19797;BME280;10058;57.654;12.044;2023-08-24T04:28:52;100814.53;;;17.51;100.00
19797;BME280;10058;57.654;12.044;2023-08-24T04:31:17;100800.28;;;17.43;100.00
19797;BME280;10058;57.654;12.044;2023-08-24T04:33:42;100805.63;;;17.60;100.00
19797;BME280;10058;57.654;12.044;2023-08-24T04:36:08;100812.75;;;17.55;100.00
19797;BME280;10058;57.654;12.044;2023-08-24T04:38:33;100810.13;;;17.65;100.00
19797;BME280;10058;57.654;12.044;2023-08-24T04:40:59;100812.78;;;17.70;100.00
19797;BME280;10058;57.654;12.044;2023-08-24T04:43:24;100815.47;;;17.82;100.00
19797;BME280;10058;57.654;12.044;2023-08-24T04:45:51;100800.31;;;17.77;100.00
19797;BME280;10058;57.654;12.044;2023-08-24T04:48:21;100809.19;;;17.92;100.00
19797;BME280;10058;57.654;12.044;2023-08-24T04:50:47;100816.31;;;17.90;100.00
19797;BME280;10058;57.654;12.044;2023-08-24T04:53:15;100816.34;;;17.78;100.00
19797;BME280;10058;57.654;12.044;2023-08-24T04:55:41;100819.91;;;17.77;100.00
19797;BME280;10058;57.654;12.044;2023-08-24T04:58:10;100821.63;;;18.02;100.00
19797;BME280;10058;57.654;12.044;2023-08-24T05:00:36;100820.78;;;17.93;100.00
19797;BME280;10058;57.654;12.044;2023-08-24T05:03:05;100818.97;;;18.01;100.00
19797;BME280;10058;57.654;12.044;2023-08-24T05:05:32;100821.66;;;17.96;100.00
19797;BME280;10058;57.654;12.044;2023-08-24T05:07:59;100814.53;;;17.89;100.00
19797;BME280;10058;57.654;12.044;2023-08-24T05:10:25;100818.06;;;18.03;100.00
19797;BME280;10058;57.654;12.044;2023-08-24T05:12:50;100810.06;;;18.03;100.00
19797;BME280;10058;57.654;12.044;2023-08-24T05:15:15;100816.28;;;18.02;100.00
19797;BME280;10058;57.654;12.044;2023-08-24T05:17:41;100820.78;;;17.93;100.00
19797;BME280;10058;57.654;12.044;2023-08-24T05:20:07;100827.03;;;17.93;100.00
19797;BME280;10058;57.654;12.044;2023-08-24T05:22:36;100807.44;;;17.81;100.00
19797;BME280;10058;57.654;12.044;2023-08-24T05:25:01;100814.53;;;17.89;100.00
19797;BME280;10058;57.654;12.044;2023-08-24T05:27:26;100808.25;;;18.08;100.00
19797;BME280;10058;57.654;12.044;2023-08-24T05:29:52;100801.13;;;18.03;100.00
19797;BME280;10058;57.654;12.044;2023-08-24T05:32:17;100798.47;;;18.07;100.00
19797;BME280;10058;57.654;12.044;2023-08-24T05:34:42;100798.47;;;18.07;100.00
19797;BME280;10058;57.654;12.044;2023-08-24T05:37:08;100799.28;;;18.26;100.00
19797;BME280;10058;57.654;12.044;2023-08-24T05:39:33;100799.34;;;18.14;100.00
19797;BME280;10058;57.654;12.044;2023-08-24T05:41:58;100800.19;;;18.27;100.00
19797;BME280;10058;57.654;12.044;2023-08-24T05:44:24;100793.03;;;18.33;100.00
19797;BME280;10058;57.654;12.044;2023-08-24T05:46:49;100793.94;;;18.32;100.00
19797;BME280;10058;57.654;12.044;2023-08-24T05:49:14;100803.75;;;18.29;100.00
19797;BME280;10058;57.654;12.044;2023-08-24T05:51:39;100801.91;;;18.49;100.00
19797;BME280;10058;57.654;12.044;2023-08-24T05:54:05;100801.97;;;18.34;100.00
19797;BME280;10058;57.654;12.044;2023-08-24T05:56:30;100795.63;;;18.62;100.00
19797;BME280;10058;57.654;12.044;2023-08-24T05:58:57;100792.03;;;18.66;100.00
19797;BME280;10058;57.654;12.044;2023-08-24T06:01:23;100787.50;;;18.77;100.00
19797;BME280;10058;57.654;12.044;2023-08-24T06:03:49;100780.28;;;18.90;100.00
19797;BME280;10058;57.654;12.044;2023-08-24T06:06:14;100789.28;;;18.78;100.00
19797;BME280;10058;57.654;12.044;2023-08-24T06:08:39;100788.28;;;18.95;100.00
19797;BME280;10058;57.654;12.044;2023-08-24T06:11:05;100779.47;;;18.76;100.00
19797;BME280;10058;57.654;12.044;2023-08-24T06:13:30;100775.78;;;18.92;100.00
19797;BME280;10058;57.654;12.044;2023-08-24T06:15:55;100780.25;;;18.95;100.00
19797;BME280;10058;57.654;12.044;2023-08-24T06:18:21;100775.75;;;19.04;100.00
19797;BME280;10058;57.654;12.044;2023-08-24T06:20:46;100767.84;;;18.82;100.00
19797;BME280;10058;57.654;12.044;2023-08-24T06:23:14;100775.75;;;18.98;100.00
19797;BME280;10058;57.654;12.044;2023-08-24T06:25:40;100772.22;;;18.93;100.00
19797;BME280;10058;57.654;12.044;2023-08-24T06:28:05;100773.13;;;18.91;100.00
19797;BME280;10058;57.654;12.044;2023-08-24T06:30:30;100779.22;;;19.12;100.00
19797;BME280;10058;57.654;12.044;2023-08-24T06:33:03;100785.41;;;19.22;100.00
19797;BME280;10058;57.654;12.044;2023-08-24T06:35:28;100778.28;;;19.21;100.00
19797;BME280;10058;57.654;12.044;2023-08-24T06:37:54;100778.31;;;19.15;100.00
19797;BME280;10058;57.654;12.044;2023-08-24T06:40:19;100770.13;;;19.35;100.00
19797;BME280;10058;57.654;12.044;2023-08-24T06:42:45;100777.94;;;19.67;100.00
19797;BME280;10058;57.654;12.044;2023-08-24T06:45:10;100778.63;;;19.86;100.00
19797;BME280;10058;57.654;12.044;2023-08-24T06:47:36;100780.63;;;20.48;100.00
19797;BME280;10058;57.654;12.044;2023-08-24T06:50:01;100772.47;;;20.57;100.00
19797;BME280;10058;57.654;12.044;2023-08-24T06:52:26;100784.38;;;20.32;100.00
19797;BME280;10058;57.654;12.044;2023-08-24T06:54:52;100783.81;;;20.02;100.00
19797;BME280;10058;57.654;12.044;2023-08-24T06:57:20;100786.19;;;20.27;100.00
19797;BME280;10058;57.654;12.044;2023-08-24T06:59:45;100800.84;;;19.98;100.00
19797;BME280;10058;57.654;12.044;2023-08-24T07:02:10;100800.97;;;19.86;100.00
19797;BME280;10058;57.654;12.044;2023-08-24T07:04:36;100801.19;;;19.65;100.00
19797;BME280;10058;57.654;12.044;2023-08-24T07:07:03;100799.00;;;20.06;100.00
19797;BME280;10058;57.654;12.044;2023-08-24T07:09:29;100797.44;;;19.81;100.00
19797;BME280;10058;57.654;12.044;2023-08-24T07:11:54;100787.75;;;19.69;100.00
19797;BME280;10058;57.654;12.044;2023-08-24T07:14:19;100799.19;;;19.85;100.00
19797;BME280;10058;57.654;12.044;2023-08-24T07:16:45;100806.50;;;19.69;100.00
19797;BME280;10058;57.654;12.044;2023-08-24T07:19:10;100813.84;;;19.41;100.00
19797;BME280;10058;57.654;12.044;2023-08-24T07:21:35;100797.81;;;19.38;100.00
19797;BME280;10058;57.654;12.044;2023-08-24T07:24:01;100809.47;;;19.31;100.00
19797;BME280;10058;57.654;12.044;2023-08-24T07:26:26;100816.66;;;19.23;100.00
19797;BME280;10058;57.654;12.044;2023-08-24T07:28:52;100822.00;;;19.25;100.00
19797;BME280;10058;57.654;12.044;2023-08-24T07:31:17;100825.50;;;19.39;100.00
19797;BME280;10058;57.654;12.044;2023-08-24T07:33:43;100800.72;;;20.10;100.00
19797;BME280;10058;57.654;12.044;2023-08-24T07:36:09;100810.66;;;20.01;100.00
19797;BME280;10058;57.654;12.044;2023-08-24T07:38:34;100809.78;;;20.00;100.00
19797;BME280;10058;57.654;12.044;2023-08-24T07:40:59;100811.13;;;19.46;100.00
19797;BME280;10058;57.654;12.044;2023-08-24T07:43:25;100812.13;;;19.37;100.00
19797;BME280;10058;57.654;12.044;2023-08-24T07:45:50;100819.97;;;19.60;100.00
19797;BME280;10058;57.654;12.044;2023-08-24T07:48:17;100823.41;;;19.74;100.00
19797;BME280;10058;57.654;12.044;2023-08-24T07:50:42;100826.22;;;19.61;100.00
19797;BME280;10058;57.654;12.044;2023-08-24T07:53:07;100823.13;;;20.08;100.00
19797;BME280;10058;57.654;12.044;2023-08-24T07:55:33;100825.38;;;20.46;100.00
19797;BME280;10058;57.654;12.044;2023-08-24T07:57:58;100812.19;;;20.97;100.00
19797;BME280;10058;57.654;12.044;2023-08-24T08:00:24;100815.47;;;21.20;100.00
19797;BME280;10058;57.654;12.044;2023-08-24T08:02:50;100815.63;;;21.08;100.00
19797;BME280;10058;57.654;12.044;2023-08-24T08:05:16;100822.25;;;20.81;100.00
19797;BME280;10058;57.654;12.044;2023-08-24T08:07:42;100825.09;;;20.70;100.00
19797;BME280;10058;57.654;12.044;2023-08-24T08:10:07;100782.56;;;20.32;100.00
19797;BME280;10058;57.654;12.044;2023-08-24T08:12:33;100839.41;;;20.72;100.00
19797;BME280;10058;57.654;12.044;2023-08-24T08:14:59;100824.84;;;21.48;100.00
19797;BME280;10058;57.654;12.044;2023-08-24T08:17:24;100830.25;;;21.99;100.00
19797;BME280;10058;57.654;12.044;2023-08-24T08:19:54;100797.00;;;21.52;100.00
19797;BME280;10058;57.654;12.044;2023-08-24T08:22:20;100817.78;;;21.95;100.00
19797;BME280;10058;57.654;12.044;2023-08-24T08:24:45;100815.69;;;22.12;100.00
19797;BME280;10058;57.654;12.044;2023-08-24T08:27:11;100820.59;;;21.89;100.00
19797;BME280;10058;57.654;12.044;2023-08-24T08:29:36;100826.88;;;21.88;100.00
19797;BME280;10058;57.654;12.044;2023-08-24T08:32:01;100819.16;;;22.17;100.00
19797;BME280;10058;57.654;12.044;2023-08-24T08:34:27;100815.94;;;22.45;100.00
19797;BME280;10058;57.654;12.044;2023-08-24T08:36:52;100821.09;;;22.12;100.00
19797;BME280;10058;57.654;12.044;2023-08-24T08:39:17;100832.25;;;21.88;100.00
19797;BME280;10058;57.654;12.044;2023-08-24T08:41:43;100829.53;;;21.37;100.00
19797;BME280;10058;57.654;12.044;2023-08-24T08:44:12;100832.88;;;21.51;100.00
19797;BME280;10058;57.654;12.044;2023-08-24T08:46:38;100836.19;;;21.69;100.00
19797;BME280;10058;57.654;12.044;2023-08-24T08:49:06;100838.00;;;21.67;100.00
19797;BME280;10058;57.654;12.044;2023-08-24T08:51:32;100831.34;;;21.35;100.00
19797;BME280;10058;57.654;12.044;2023-08-24T08:53:58;100845.44;;;20.88;100.00
19797;BME280;10058;57.654;12.044;2023-08-24T08:56:23;100846.81;;;20.52;100.00
19797;BME280;10058;57.654;12.044;2023-08-24T08:58:49;100855.78;;;20.49;100.00
19797;BME280;10058;57.654;12.044;2023-08-24T09:01:16;100850.63;;;20.27;100.00
19797;BME280;10058;57.654;12.044;2023-08-24T09:03:42;100862.19;;;20.39;100.00
19797;BME280;10058;57.654;12.044;2023-08-24T09:06:09;100856.59;;;20.58;100.00
19797;BME280;10058;57.654;12.044;2023-08-24T09:08:34;100863.88;;;20.46;100.00
19797;BME280;10058;57.654;12.044;2023-08-24T09:11:00;100850.25;;;20.63;100.00
19797;BME280;10058;57.654;12.044;2023-08-24T09:13:27;100855.06;;;20.32;100.00
19797;BME280;10058;57.654;12.044;2023-08-24T09:15:52;100854.16;;;20.36;100.00
19797;BME280;10058;57.654;12.044;2023-08-24T09:18:19;100853.91;;;20.59;100.00
19797;BME280;10058;57.654;12.044;2023-08-24T09:20:47;100778.16;;;20.96;100.00
19797;BME280;10058;57.654;12.044;2023-08-24T09:23:18;100829.84;;;22.23;100.00
19797;BME280;10058;57.654;12.044;2023-08-24T09:25:46;100830.13;;;22.53;100.00
19797;BME280;10058;57.654;12.044;2023-08-24T09:28:12;100824.66;;;22.14;100.00
19797;BME280;10058;57.654;12.044;2023-08-24T09:30:37;100834.09;;;21.86;100.00
19797;BME280;10058;57.654;12.044;2023-08-24T09:33:04;100836.13;;;21.72;100.00
19797;BME280;10058;57.654;12.044;2023-08-24T09:35:34;100837.13;;;21.66;100.00
19797;BME280;10058;57.654;12.044;2023-08-24T09:38:22;100834.25;;;21.77;100.00
19797;BME280;10058;57.654;12.044;2023-08-24T09:40:52;100842.06;;;21.38;100.00
19797;BME280;10058;57.654;12.044;2023-08-24T09:43:18;100845.91;;;21.22;100.00
19797;BME280;10058;57.654;12.044;2023-08-24T09:48:16;100853.31;;;21.02;100.00
19797;BME280;10058;57.654;12.044;2023-08-24T09:50:44;100844.94;;;21.28;100.00
19797;BME280;10058;57.654;12.044;2023-08-24T09:53:21;100785.72;;;20.69;100.00
19797;BME280;10058;57.654;12.044;2023-08-24T09:55:55;100848.47;;;20.62;100.00
19797;BME280;10058;57.654;12.044;2023-08-24T09:58:22;100791.91;;;19.99;100.00
19797;BME280;10058;57.654;12.044;2023-08-24T10:00:48;100848.88;;;20.26;100.00
19797;BME280;10058;57.654;12.044;2023-08-24T10:03:19;100777.63;;;19.94;100.00
19797;BME280;10058;57.654;12.044;2023-08-24T10:05:52;100856.09;;;20.17;100.00
19797;BME280;10058;57.654;12.044;2023-08-24T10:08:21;100842.56;;;20.28;100.00
19797;BME280;10058;57.654;12.044;2023-08-24T10:10:52;100810.84;;;19.83;100.00
19797;BME280;10058;57.654;12.044;2023-08-24T10:13:24;100852.22;;;20.47;100.00
19797;BME280;10058;57.654;12.044;2023-08-24T10:15:52;100839.81;;;20.39;100.00
19797;BME280;10058;57.654;12.044;2023-08-24T10:18:18;100835.34;;;20.39;100.00
19797;BME280;10058;57.654;12.044;2023-08-24T10:20:44;100836.25;;;20.34;100.00
19797;BME280;10058;57.654;12.044;2023-08-24T10:23:11;100827.06;;;20.56;100.00
19797;BME280;10058;57.654;12.044;2023-08-24T10:25:37;100816.22;;;20.62;100.00
19797;BME280;10058;57.654;12.044;2023-08-24T10:28:04;100816.31;;;20.59;100.00
19797;BME280;10058;57.654;12.044;2023-08-24T10:30:29;100821.78;;;21.14;100.00
19797;BME280;10058;57.654;12.044;2023-08-24T10:32:56;100822.31;;;21.93;100.00
19797;BME280;10058;57.654;12.044;2023-08-24T10:35:23;100817.22;;;22.26;100.00
19797;BME280;10058;57.654;12.044;2023-08-24T10:37:52;100810.31;;;22.55;100.00
19797;BME280;10058;57.654;12.044;2023-08-24T10:40:34;100814.22;;;22.85;100.00
19797;BME280;10058;57.654;12.044;2023-08-24T10:43:02;100814.28;;;22.82;100.00
19797;BME280;10058;57.654;12.044;2023-08-24T10:46:01;100803.09;;;23.01;100.00
19797;BME280;10058;57.654;12.044;2023-08-24T10:48:29;100788.75;;;22.99;100.00
19797;BME280;10058;57.654;12.044;2023-08-24T10:53:38;100811.59;;;23.21;100.00
19797;BME280;10058;57.654;12.044;2023-08-24T10:56:15;100806.03;;;22.47;100.00
19797;BME280;10058;57.654;12.044;2023-08-24T10:58:41;100793.72;;;23.17;100.00
19797;BME280;10058;57.654;12.044;2023-08-24T11:01:07;100801.09;;;23.83;100.00
19797;BME280;10058;57.654;12.044;2023-08-24T11:03:39;100801.38;;;24.39;100.00
19797;BME280;10058;57.654;12.044;2023-08-24T11:06:18;100787.03;;;24.37;100.00
19797;BME280;10058;57.654;12.044;2023-08-24T11:08:44;100807.25;;;23.88;100.00
19797;BME280;10058;57.654;12.044;2023-08-24T11:11:23;100807.50;;;23.03;100.00
19797;BME280;10058;57.654;12.044;2023-08-24T11:14:22;100823.13;;;22.87;100.00
19797;BME280;10058;57.654;12.044;2023-08-24T11:16:48;100826.97;;;22.77;100.00
19797;BME280;10058;57.654;12.044;2023-08-24T11:19:15;100806.97;;;23.26;100.00
19797;BME280;10058;57.654;12.044;2023-08-24T11:21:42;100809.75;;;22.84;100.00
19797;BME280;10058;57.654;12.044;2023-08-24T11:24:15;100825.06;;;22.82;100.00
19797;BME280;10058;57.654;12.044;2023-08-24T11:26:45;100813.53;;;23.16;100.00
19797;BME280;10058;57.654;12.044;2023-08-24T11:29:11;100818.25;;;23.43;100.00
19797;BME280;10058;57.654;12.044;2023-08-24T11:31:37;100818.16;;;23.09;100.00
19797;BME280;10058;57.654;12.044;2023-08-24T11:34:03;100810.03;;;23.48;100.00
19797;BME280;10058;57.654;12.044;2023-08-24T11:36:51;100803.69;;;23.50;100.00
19797;BME280;10058;57.654;12.044;2023-08-24T11:39:19;100812.41;;;23.24;100.00
19797;BME280;10058;57.654;12.044;2023-08-24T11:42:05;100820.41;;;22.46;100.00
19797;BME280;10058;57.654;12.044;2023-08-24T11:44:51;100829.94;;;22.17;100.00
19797;BME280;10058;57.654;12.044;2023-08-24T11:47:19;100829.19;;;22.11;100.00
19797;BME280;10058;57.654;12.044;2023-08-24T11:49:45;100812.59;;;22.75;100.00
19797;BME280;10058;57.654;12.044;2023-08-24T11:52:11;100816.41;;;23.45;100.00
19797;BME280;10058;57.654;12.044;2023-08-24T11:54:36;100813.53;;;23.16;100.00
19797;BME280;10058;57.654;12.044;2023-08-24T11:57:08;100816.75;;;22.93;100.00
19797;BME280;10058;57.654;12.044;2023-08-24T11:59:36;100805.59;;;22.23;100.00
19797;BME280;10058;57.654;12.044;2023-08-24T12:02:02;100828.44;;;22.49;100.00
19797;BME280;10058;57.654;12.044;2023-08-24T12:04:37;100793.84;;;22.28;100.00
19797;BME280;10058;57.654;12.044;2023-08-24T12:07:09;100821.25;;;22.92;100.00
19797;BME280;10058;57.654;12.044;2023-08-24T12:09:35;100819.78;;;22.76;100.00
19797;BME280;10058;57.654;12.044;2023-08-24T12:12:02;100807.31;;;23.12;100.00
19797;BME280;10058;57.654;12.044;2023-08-24T12:14:27;100812.81;;;23.08;100.00
19797;BME280;10058;57.654;12.044;2023-08-24T12:16:52;100807.63;;;23.37;100.00
19797;BME280;10058;57.654;12.044;2023-08-24T12:19:21;100757.97;;;23.44;100.00
19797;BME280;10058;57.654;12.044;2023-08-24T12:21:50;100801.88;;;23.52;100.00
19797;BME280;10058;57.654;12.044;2023-08-24T12:24:15;100805.50;;;24.19;100.00
19797;BME280;10058;57.654;12.044;2023-08-24T12:26:40;100801.94;;;24.50;100.00
19797;BME280;10058;57.654;12.044;2023-08-24T12:29:08;100748.59;;;23.23;100.00
19797;BME280;10058;57.654;12.044;2023-08-24T12:31:34;100801.97;;;23.09;100.00
19797;BME280;10058;57.654;12.044;2023-08-24T12:34:04;100799.78;;;23.64;100.00
19797;BME280;10058;57.654;12.044;2023-08-24T12:39:01;100815.06;;;22.87;100.00